Item Display Status Humidity-temperature Sensor

Elevation Above Sea Level: 3 m

 

Deployed Sensor

  • Serial Number: 20199478
  • NDBC Property Number: 41814
  • Start Date: 4/17/2018 (14:16:36 Z)
  • End Date: Currently Active
Relative Humidity [%]     6 entries per hour
Showing data from 7/22/2019 (22:30:00 Z) to 7/21/2019 (00:00:01 Z)
Previous Next [ Day | 3-Days | 7-Days ]
First Last
Prev [ Day | 3-Days | 7-Days ] Next
First Last

Start Time:     :
End Time:     :     
Time (in GMT) :00 :50 :40 :30 :20 :10
Previous Next [ Day | 3-Days | 7-Days ]
First Last
Prev [ Day | 3-Days | 7-Days ] Next
First Last


123 => good data
MM => data is determined as missing
-- => data not received/configured
Back to Top Back to Top
7/22/2019 23:00 to 22:10 -- -- -- 78.04 77.27 77.02
7/22/2019 22:00 to 21:10 78.12 77.27 78.22 76.54 77.48 76.04
7/22/2019 21:00 to 20:10 75.19 76.06 75.11 76.60 77.12 76.42
7/22/2019 20:00 to 19:10 76.27 77.35 76.64 77.62 77.39 75.21
7/22/2019 19:00 to 18:10 75.38 75.21 76.56 76.46 77.33 77.43
7/22/2019 18:00 to 17:10 76.81 77.45 78.24 76.87 77.16 78.06
7/22/2019 17:00 to 16:10 76.08 75.54 75.29 75.98 73.80 72.99
7/22/2019 16:00 to 15:10 72.40 72.97 71.59 72.67 70.74 74.05
7/22/2019 15:00 to 14:10 74.23 74.27 73.94 76.06 77.75 78.31
7/22/2019 14:00 to 13:10 76.56 77.16 78.04 78.97 79.55 77.77
7/22/2019 13:00 to 12:10 77.14 76.12 74.73 77.25 76.54 77.10
7/22/2019 12:00 to 11:10 76.48 75.94 76.48 76.00 76.44 76.21
7/22/2019 11:00 to 10:10 75.33 77.39 74.79 75.79 75.63 75.52
7/22/2019 10:00 to 9:10 75.63 76.21 76.12 75.75 74.42 73.90
7/22/2019 09:00 to 8:10 74.81 73.40 74.25 74.21 74.69 73.34
7/22/2019 08:00 to 7:10 73.34 73.80 73.53 71.78 72.76 72.42
7/22/2019 07:00 to 6:10 73.30 73.94 73.92 73.55 73.11 72.69
7/22/2019 06:00 to 5:10 72.11 73.73 73.28 72.55 72.61 73.92
7/22/2019 05:00 to 4:10 73.09 71.97 71.32 73.46 70.85 71.34
7/22/2019 04:00 to 3:10 71.45 71.30 69.95 67.31 69.83 70.10
7/22/2019 03:00 to 2:10 68.91 69.45 69.76 68.75 71.61 70.85
7/22/2019 02:00 to 1:10 71.99 72.30 71.93 72.88 72.57 72.34
7/22/2019 01:00 to 0:10 71.97 71.28 71.47 72.94 73.61 73.65
7/22/2019 00:00 to 23:10 71.47 73.75 73.61 74.13 71.97 72.30
7/21/2019 23:00 to 22:10 72.38 72.22 73.09 72.13 72.30 72.80
7/21/2019 22:00 to 21:10 72.97 72.15 73.71 72.45 74.42 73.75
7/21/2019 21:00 to 20:10 73.69 73.75 72.94 72.01 73.86 72.80
7/21/2019 20:00 to 19:10 72.55 73.09 71.05 72.69 72.40 71.91
7/21/2019 19:00 to 18:10 71.57 71.32 70.80 71.57 71.01 71.41
7/21/2019 18:00 to 17:10 72.36 73.17 72.90 74.61 73.90 76.00
7/21/2019 17:00 to 16:10 77.35 74.02 75.40 75.31 75.17 74.73
7/21/2019 16:00 to 15:10 76.39 76.23 76.17 76.23 76.83 76.66
7/21/2019 15:00 to 14:10 75.71 76.77 76.81 75.31 75.77 74.54
7/21/2019 14:00 to 13:10 74.48 73.51 75.52 73.71 75.85 74.44
7/21/2019 13:00 to 12:10 74.07 73.80 75.19 74.92 76.44 75.79
7/21/2019 12:00 to 11:10 77.02 77.58 76.42 75.96 75.58 76.33
7/21/2019 11:00 to 10:10 76.08 75.36 74.86 74.81 75.15 77.14
7/21/2019 10:00 to 9:10 75.60 74.79 73.07 73.09 74.19 74.30
7/21/2019 09:00 to 8:10 75.08 74.94 75.96 74.90 75.77 75.29
7/21/2019 08:00 to 7:10 73.98 73.90 74.94 75.31 75.23 75.42
7/21/2019 07:00 to 6:10 74.84 72.40 72.99 73.05 75.25 74.11
7/21/2019 06:00 to 5:10 73.80 73.40 72.57 72.69 71.63 71.28
7/21/2019 05:00 to 4:10 70.47 71.07 71.95 71.91 72.49 71.55
7/21/2019 04:00 to 3:10 70.64 72.42 72.78 72.07 71.16 72.72
7/21/2019 03:00 to 2:10 72.32 72.47 73.57 73.75 73.96 73.46
7/21/2019 02:00 to 1:10 73.78 74.59 75.02 74.92 72.51 73.13
7/21/2019 01:00 to 0:10 74.88 72.76 72.90 72.07 73.90 73.32

 

 

 

Air Temperature [°C]     6 entries per hour
Showing data from 7/22/2019 (22:30:00 Z) to 7/21/2019 (00:00:01 Z)
Previous Next [ Day | 3-Days | 7-Days ]
First Last
Prev [ Day | 3-Days | 7-Days ] Next
First Last

Start Time:     :
End Time:     :     
Time (in GMT) :00 :50 :40 :30 :20 :10
Previous Next [ Day | 3-Days | 7-Days ]
First Last
Prev [ Day | 3-Days | 7-Days ] Next
First Last


123 => good data
MM => data is determined as missing
-- => data not received/configured
Back to Top Back to Top
7/22/2019 23:00 to 22:10 -- -- -- 29.26 29.33 29.32
7/22/2019 22:00 to 21:10 29.26 29.31 29.50 29.37 29.45 29.41
7/22/2019 21:00 to 20:10 29.47 29.55 29.44 29.38 29.47 29.47
7/22/2019 20:00 to 19:10 29.30 29.36 29.48 29.14 29.26 29.44
7/22/2019 19:00 to 18:10 29.53 29.44 29.47 29.10 29.04 28.84
7/22/2019 18:00 to 17:10 29.08 29.00 28.84 28.72 28.79 28.87
7/22/2019 17:00 to 16:10 28.84 28.82 28.83 28.93 28.84 28.96
7/22/2019 16:00 to 15:10 28.87 28.90 28.87 29.01 28.85 28.92
7/22/2019 15:00 to 14:10 28.72 28.79 28.78 28.75 28.70 28.81
7/22/2019 14:00 to 13:10 28.71 28.76 28.67 28.68 28.66 28.69
7/22/2019 13:00 to 12:10 28.80 28.85 28.83 28.88 28.89 28.75
7/22/2019 12:00 to 11:10 28.78 28.77 28.82 28.76 28.82 28.81
7/22/2019 11:00 to 10:10 28.89 28.88 28.74 28.85 28.80 28.84
7/22/2019 10:00 to 9:10 28.84 28.80 28.89 28.84 28.82 28.83
7/22/2019 09:00 to 8:10 28.80 28.82 28.90 28.87 28.95 28.79
7/22/2019 08:00 to 7:10 28.99 28.94 28.90 28.86 28.91 28.88
7/22/2019 07:00 to 6:10 28.86 28.89 28.78 28.91 28.86 28.88
7/22/2019 06:00 to 5:10 28.94 28.88 28.80 28.84 28.98 28.97
7/22/2019 05:00 to 4:10 29.03 29.12 29.05 28.88 29.23 29.25
7/22/2019 04:00 to 3:10 29.13 29.26 29.22 29.19 29.21 29.12
7/22/2019 03:00 to 2:10 28.91 28.91 29.10 28.92 28.78 28.76
7/22/2019 02:00 to 1:10 28.82 28.77 28.73 28.77 28.83 28.77
7/22/2019 01:00 to 0:10 28.71 28.74 28.59 28.64 28.66 28.74
7/22/2019 00:00 to 23:10 28.74 28.65 28.71 28.66 28.68 28.60
7/21/2019 23:00 to 22:10 28.63 28.59 28.65 28.65 28.65 28.64
7/21/2019 22:00 to 21:10 28.63 28.58 28.59 28.52 28.48 28.62
7/21/2019 21:00 to 20:10 28.47 28.55 28.68 28.76 28.54 28.60
7/21/2019 20:00 to 19:10 28.99 28.95 28.89 28.69 28.92 29.11
7/21/2019 19:00 to 18:10 29.03 29.12 28.94 28.95 29.10 28.92
7/21/2019 18:00 to 17:10 28.95 28.51 28.49 28.27 28.23 28.21
7/21/2019 17:00 to 16:10 28.34 28.18 28.19 28.27 28.27 28.25
7/21/2019 16:00 to 15:10 28.23 28.16 28.31 28.24 28.22 28.18
7/21/2019 15:00 to 14:10 28.14 28.26 28.31 28.23 28.46 28.42
7/21/2019 14:00 to 13:10 28.43 28.38 28.41 28.36 28.39 28.53
7/21/2019 13:00 to 12:10 28.45 28.47 28.58 28.48 28.55 28.47
7/21/2019 12:00 to 11:10 28.53 28.56 28.66 28.60 28.70 28.61
7/21/2019 11:00 to 10:10 28.55 28.63 28.67 28.71 28.66 28.68
7/21/2019 10:00 to 9:10 28.70 28.82 28.76 28.74 28.85 28.78
7/21/2019 09:00 to 8:10 28.80 28.65 28.80 28.76 28.77 28.80
7/21/2019 08:00 to 7:10 28.77 28.69 28.76 28.77 28.74 28.90
7/21/2019 07:00 to 6:10 28.96 28.89 28.97 28.91 29.00 28.86
7/21/2019 06:00 to 5:10 28.85 28.86 28.87 28.92 28.93 29.05
7/21/2019 05:00 to 4:10 29.05 29.09 29.01 29.04 29.13 29.17
7/21/2019 04:00 to 3:10 29.19 29.23 29.12 29.06 29.11 28.95
7/21/2019 03:00 to 2:10 29.21 29.06 29.00 29.01 28.99 28.93
7/21/2019 02:00 to 1:10 28.80 28.78 28.94 29.03 28.86 28.86
7/21/2019 01:00 to 0:10 28.86 28.86 28.95 28.91 28.89 28.85